METAR Data
IDs: Format: Raw Decoded Include TAF

Data at: 0130 UTC 06 Dec 2019

METAR for:KCGS (College Park Arpt, MD, US)
Text:KCGS 060116Z AUTO 00000KT 10SM CLR 02/M06 A3013 RMK AO1 T00191064
Temperature: 1.9°C ( 35°F)
Dewpoint: -6.4°C ( 20°F) [RH = 54%]
Pressure (altimeter):30.13 inches Hg (1020.4 mb)
Winds:calm
Visibility:10 or more sm (16+ km)
Ceiling:at least 12,000 feet AGL
Clouds:sky clear below 12,000 feet AGL
QC Flag:automated observation with no human augmentation